createdAt,value
2023-05-05T00:00:06.532Z,39.26
2023-05-05T00:00:38.099Z,39.28
2023-05-05T00:01:09.525Z,38.79
2023-05-05T00:01:40.985Z,39.44
2023-05-05T00:02:12.404Z,39.28
2023-05-05T00:02:43.976Z,38.87
2023-05-05T00:03:15.606Z,39.19
2023-05-05T00:03:47.100Z,39.12
2023-05-05T00:04:18.601Z,39.13
2023-05-05T00:04:50.035Z,39.37
2023-05-05T00:05:21.438Z,38.90
2023-05-05T00:05:52.848Z,39.35
2023-05-05T00:06:24.259Z,39.45
2023-05-05T00:06:55.681Z,38.96
2023-05-05T00:07:27.089Z,39.33
2023-05-05T00:07:58.792Z,38.93
2023-05-05T00:08:30.283Z,38.72
2023-05-05T00:09:01.763Z,39.08
2023-05-05T00:09:33.193Z,38.88
2023-05-05T00:10:04.641Z,38.66
2023-05-05T00:10:36.059Z,38.95
2023-05-05T00:11:07.463Z,38.90
2023-05-05T00:11:38.866Z,38.97
2023-05-05T00:12:10.285Z,38.89
2023-05-05T00:12:41.721Z,39.17
2023-05-05T00:13:13.297Z,39.01
2023-05-05T00:13:44.822Z,39.33
2023-05-05T00:14:16.229Z,38.70
2023-05-05T00:14:47.660Z,38.67
2023-05-05T00:15:19.060Z,39.18
2023-05-05T00:15:50.467Z,39.21
2023-05-05T00:16:21.902Z,38.60
2023-05-05T00:16:53.434Z,39.28
2023-05-05T00:17:24.845Z,38.89
2023-05-05T00:17:56.290Z,39.01
2023-05-05T00:18:27.735Z,39.20
2023-05-05T00:18:59.140Z,39.20
2023-05-05T00:19:30.522Z,38.73
2023-05-05T00:20:01.920Z,39.01
2023-05-05T00:20:33.330Z,38.74
2023-05-05T00:21:04.725Z,39.23
2023-05-05T00:21:36.183Z,39.01
2023-05-05T00:22:07.638Z,39.04
2023-05-05T00:22:39.057Z,38.82
2023-05-05T00:23:10.466Z,38.83
2023-05-05T00:23:41.876Z,38.92
2023-05-05T00:24:13.321Z,39.33
2023-05-05T00:24:44.752Z,39.04
2023-05-05T00:25:16.193Z,39.37
2023-05-05T00:25:47.597Z,39.05
2023-05-05T00:26:19.012Z,39.03
2023-05-05T00:26:50.418Z,38.73
2023-05-05T00:27:21.869Z,38.75
2023-05-05T00:27:53.261Z,38.80
2023-05-05T00:28:24.654Z,39.09
2023-05-05T00:28:56.058Z,39.44
2023-05-05T00:29:27.493Z,39.23
2023-05-05T00:29:58.906Z,39.34
2023-05-05T00:30:30.308Z,39.37
2023-05-05T00:31:01.862Z,39.16
2023-05-05T00:31:33.410Z,38.87
2023-05-05T00:32:04.893Z,39.07
2023-05-05T00:32:36.792Z,39.06
2023-05-05T00:33:08.221Z,38.85
2023-05-05T00:33:39.643Z,39.31
2023-05-05T00:34:11.050Z,38.79
2023-05-05T00:34:42.470Z,39.38
2023-05-05T00:35:13.915Z,39.18
2023-05-05T00:35:45.323Z,39.18
2023-05-05T00:36:16.761Z,39.24
2023-05-05T00:36:48.183Z,38.80
2023-05-05T00:37:19.569Z,39.14
2023-05-05T00:37:50.997Z,39.15
2023-05-05T00:38:22.413Z,39.38
2023-05-05T00:38:53.822Z,38.65
2023-05-05T00:39:25.213Z,39.25
2023-05-05T00:39:56.685Z,39.05
2023-05-05T00:40:28.093Z,38.96
2023-05-05T00:40:59.515Z,39.06
2023-05-05T00:41:30.925Z,39.30
2023-05-05T00:42:02.319Z,38.85
2023-05-05T00:42:33.729Z,38.86
2023-05-05T00:43:05.176Z,38.75
2023-05-05T00:43:36.643Z,39.03
2023-05-05T00:44:08.061Z,39.04
2023-05-05T00:44:39.490Z,39.14
2023-05-05T00:45:10.936Z,39.13
2023-05-05T00:45:42.357Z,39.54
2023-05-05T00:46:13.786Z,39.54
2023-05-05T00:46:45.309Z,39.35
2023-05-05T00:47:16.811Z,38.95
2023-05-05T00:47:48.276Z,38.83
2023-05-05T00:48:19.704Z,38.92
2023-05-05T00:48:51.203Z,38.77
2023-05-05T00:49:22.689Z,39.45
2023-05-05T00:49:54.129Z,38.74
2023-05-05T00:50:25.564Z,39.14
2023-05-05T00:50:56.953Z,39.24
2023-05-05T00:51:28.368Z,39.47
2023-05-05T00:51:59.792Z,39.15
2023-05-05T00:52:31.239Z,39.63
2023-05-05T00:53:02.691Z,39.18
2023-05-05T00:53:34.118Z,39.18
2023-05-05T00:54:05.523Z,38.91
2023-05-05T00:54:36.913Z,39.51
2023-05-05T00:55:08.308Z,39.11
2023-05-05T00:55:39.746Z,39.24
2023-05-05T00:56:11.156Z,39.63
2023-05-05T00:56:42.567Z,39.33
2023-05-05T00:57:13.960Z,39.20
2023-05-05T00:57:45.382Z,39.25
2023-05-05T00:58:16.795Z,39.15
2023-05-05T00:58:48.212Z,39.03
2023-05-05T00:59:19.966Z,39.11
2023-05-05T00:59:51.369Z,39.29
2023-05-05T01:00:22.799Z,39.13
2023-05-05T01:00:54.208Z,39.30
2023-05-05T01:01:25.705Z,38.88
2023-05-05T01:01:57.362Z,38.90
2023-05-05T01:02:28.961Z,38.95
2023-05-05T01:03:00.526Z,39.48
2023-05-05T01:03:32.041Z,39.41
2023-05-05T01:04:03.586Z,39.07
2023-05-05T01:04:35.092Z,38.74
2023-05-05T01:05:06.573Z,38.83
2023-05-05T01:05:38.024Z,39.27
2023-05-05T01:06:09.414Z,38.90
2023-05-05T01:06:40.823Z,39.39
2023-05-05T01:07:12.237Z,39.41
2023-05-05T01:07:43.653Z,39.09
2023-05-05T01:08:15.081Z,39.54
2023-05-05T01:08:46.484Z,39.11
2023-05-05T01:09:17.904Z,38.78
2023-05-05T01:09:51.914Z,39.38
2023-05-05T01:10:29.475Z,39.24
2023-05-05T01:11:00.934Z,39.13
2023-05-05T01:11:32.370Z,39.34
2023-05-05T01:12:03.792Z,39.14
2023-05-05T01:12:35.219Z,39.24
2023-05-05T01:13:06.768Z,39.18
2023-05-05T01:13:38.283Z,39.33
2023-05-05T01:14:09.685Z,39.00
2023-05-05T01:14:41.095Z,39.08
2023-05-05T01:15:12.494Z,39.40
2023-05-05T01:15:43.934Z,39.07
2023-05-05T01:16:15.449Z,38.94
2023-05-05T01:16:46.901Z,39.03
2023-05-05T01:17:18.335Z,39.27
2023-05-05T01:17:49.822Z,39.26
2023-05-05T01:18:21.276Z,39.46
2023-05-05T01:18:52.680Z,39.26
2023-05-05T01:19:24.093Z,39.25
2023-05-05T01:19:55.502Z,39.74
2023-05-05T01:20:26.910Z,39.37
2023-05-05T01:20:58.348Z,39.11
2023-05-05T01:21:29.780Z,39.07
2023-05-05T01:22:01.187Z,39.62
2023-05-05T01:22:32.596Z,39.24
2023-05-05T01:23:04.024Z,39.53
2023-05-05T01:23:35.454Z,39.37
2023-05-05T01:24:06.883Z,39.42
2023-05-05T01:24:38.302Z,39.25
2023-05-05T01:25:09.706Z,39.35
2023-05-05T01:25:41.137Z,39.28
2023-05-05T01:26:12.594Z,39.42
2023-05-05T01:26:44.013Z,39.02
2023-05-05T01:27:15.444Z,39.45
2023-05-05T01:27:46.855Z,39.13
2023-05-05T01:28:18.253Z,39.22
2023-05-05T01:28:49.644Z,39.58
2023-05-05T01:29:21.064Z,39.74
2023-05-05T01:29:52.456Z,39.60
2023-05-05T01:30:23.867Z,39.12
2023-05-05T01:30:55.283Z,39.58
2023-05-05T01:31:26.834Z,39.36
2023-05-05T01:31:58.304Z,39.41
2023-05-05T01:32:29.817Z,39.24
2023-05-05T01:33:01.244Z,39.66
2023-05-05T01:33:32.643Z,39.41
2023-05-05T01:34:04.070Z,39.14
2023-05-05T01:34:35.458Z,39.66
2023-05-05T01:35:06.849Z,39.96
2023-05-05T01:35:38.252Z,39.41
2023-05-05T01:36:09.655Z,39.69
2023-05-05T01:36:41.090Z,39.10
2023-05-05T01:37:12.496Z,39.14
2023-05-05T01:37:43.877Z,39.47
2023-05-05T01:38:15.289Z,39.34
2023-05-05T01:38:46.729Z,39.45
2023-05-05T01:39:18.132Z,39.55
2023-05-05T01:39:49.529Z,39.57
2023-05-05T01:40:20.941Z,39.09
2023-05-05T01:40:52.354Z,39.22
2023-05-05T01:41:23.851Z,39.49
2023-05-05T01:41:55.286Z,39.46
2023-05-05T01:42:26.748Z,39.20
2023-05-05T01:42:58.149Z,39.29
2023-05-05T01:43:29.560Z,39.47
2023-05-05T01:44:01.009Z,39.26
2023-05-05T01:44:32.414Z,39.16
2023-05-05T01:45:03.822Z,39.06
2023-05-05T01:45:35.242Z,39.55
2023-05-05T01:46:06.704Z,39.15
2023-05-05T01:46:38.138Z,39.60
2023-05-05T01:47:09.594Z,39.78
2023-05-05T01:47:41.075Z,39.24
2023-05-05T01:48:12.522Z,39.54
2023-05-05T01:48:43.961Z,39.43
2023-05-05T01:49:15.392Z,39.04
2023-05-05T01:49:46.798Z,39.71
2023-05-05T01:50:18.210Z,39.11
2023-05-05T01:50:49.620Z,39.54
2023-05-05T01:51:21.031Z,39.46
2023-05-05T01:51:52.452Z,39.55
2023-05-05T01:52:23.893Z,39.70
2023-05-05T01:52:55.287Z,39.59
2023-05-05T01:53:26.688Z,39.05
2023-05-05T01:53:58.077Z,39.75
2023-05-05T01:54:29.732Z,39.59
2023-05-05T01:55:01.160Z,39.64
2023-05-05T01:55:32.555Z,39.51
2023-05-05T01:56:03.941Z,39.44
2023-05-05T01:56:35.369Z,39.41
2023-05-05T01:57:06.787Z,39.68
2023-05-05T01:57:38.198Z,39.69
2023-05-05T01:58:09.604Z,39.12
2023-05-05T01:58:41.023Z,39.41
2023-05-05T01:59:12.472Z,39.65
2023-05-05T01:59:43.875Z,39.67
2023-05-05T02:00:15.301Z,39.49
2023-05-05T02:00:46.719Z,39.60
2023-05-05T02:01:18.111Z,39.45
2023-05-05T02:01:49.541Z,39.46
2023-05-05T02:02:20.969Z,39.18
2023-05-05T02:02:52.483Z,39.45
2023-05-05T02:03:23.955Z,39.11
2023-05-05T02:03:55.396Z,39.58
2023-05-05T02:04:26.836Z,39.63
2023-05-05T02:04:58.373Z,39.36
2023-05-05T02:05:29.768Z,39.76
2023-05-05T02:06:01.186Z,39.22
2023-05-05T02:06:32.645Z,39.43
2023-05-05T02:07:04.060Z,39.38
2023-05-05T02:07:35.477Z,39.22
2023-05-05T02:08:06.887Z,39.77
2023-05-05T02:08:38.294Z,39.24
2023-05-05T02:09:09.761Z,39.67
2023-05-05T02:09:41.219Z,39.05
2023-05-05T02:10:12.608Z,39.46
2023-05-05T02:10:44.012Z,39.24
2023-05-05T02:11:15.433Z,39.67
2023-05-05T02:11:46.830Z,39.33
2023-05-05T02:12:18.257Z,39.84
2023-05-05T02:12:49.708Z,39.67
2023-05-05T02:13:21.237Z,39.65
2023-05-05T02:13:52.741Z,39.52
2023-05-05T02:14:24.163Z,39.14
2023-05-05T02:14:55.585Z,39.41
2023-05-05T02:15:26.996Z,39.72
2023-05-05T02:15:58.446Z,39.15
2023-05-05T02:16:29.901Z,39.74
2023-05-05T02:17:01.297Z,39.21
2023-05-05T02:17:32.713Z,39.06
2023-05-05T02:18:04.193Z,39.11
2023-05-05T02:18:35.630Z,39.34
2023-05-05T02:19:07.048Z,39.41
2023-05-05T02:19:38.475Z,39.10
2023-05-05T02:20:10.053Z,39.35
2023-05-05T02:20:41.586Z,39.37
2023-05-05T02:21:13.024Z,39.69
2023-05-05T02:21:44.435Z,39.51
2023-05-05T02:22:15.833Z,39.49
2023-05-05T02:22:47.232Z,39.33
2023-05-05T02:23:18.631Z,39.46
2023-05-05T02:23:50.043Z,39.41
2023-05-05T02:24:21.487Z,39.21
2023-05-05T02:24:52.877Z,39.72
2023-05-05T02:25:24.282Z,39.63
2023-05-05T02:25:55.690Z,39.32
2023-05-05T02:26:27.150Z,39.21
2023-05-05T02:26:58.556Z,39.63
2023-05-05T02:27:30.001Z,39.55
2023-05-05T02:28:01.421Z,39.74
2023-05-05T02:28:32.838Z,39.38
2023-05-05T02:29:04.227Z,39.10
2023-05-05T02:29:35.645Z,39.20
2023-05-05T02:30:07.394Z,39.46
2023-05-05T02:30:39.031Z,39.55
2023-05-05T02:31:10.457Z,39.36
2023-05-05T02:31:41.898Z,39.40
2023-05-05T02:32:13.321Z,39.53
2023-05-05T02:32:44.803Z,39.30
2023-05-05T02:33:16.249Z,39.23
2023-05-05T02:33:47.637Z,39.44
2023-05-05T02:34:19.045Z,39.54
2023-05-05T02:34:50.448Z,39.25
2023-05-05T02:35:21.853Z,39.36
2023-05-05T02:35:53.251Z,39.52
2023-05-05T02:36:24.658Z,39.75
2023-05-05T02:36:56.077Z,39.63
2023-05-05T02:37:27.495Z,39.79
2023-05-05T02:37:58.923Z,39.12
2023-05-05T02:38:30.343Z,39.37
2023-05-05T02:39:01.750Z,39.51
2023-05-05T02:39:33.192Z,39.80
2023-05-05T02:40:04.717Z,39.38
2023-05-05T02:40:36.253Z,39.39
2023-05-05T02:41:07.660Z,39.31
2023-05-05T02:41:39.090Z,39.53
2023-05-05T02:42:10.497Z,39.27
2023-05-05T02:42:42.103Z,39.27
2023-05-05T02:43:13.619Z,39.62
2023-05-05T02:43:45.094Z,39.98
2023-05-05T02:44:16.498Z,39.71
2023-05-05T02:44:47.899Z,39.14
2023-05-05T02:45:19.298Z,39.70
2023-05-05T02:45:50.709Z,39.39
2023-05-05T02:46:22.175Z,39.64
2023-05-05T02:46:53.669Z,39.49
2023-05-05T02:47:25.161Z,39.44
2023-05-05T02:47:56.593Z,39.80
2023-05-05T02:48:28.022Z,39.47
2023-05-05T02:48:59.464Z,39.21
2023-05-05T02:49:30.931Z,39.53
2023-05-05T02:50:02.329Z,39.39
2023-05-05T02:50:33.733Z,39.67
2023-05-05T02:51:05.146Z,39.60
2023-05-05T02:51:36.560Z,39.53
2023-05-05T02:52:07.977Z,39.25
2023-05-05T02:52:39.381Z,39.50
2023-05-05T02:53:10.779Z,39.67
2023-05-05T02:53:42.185Z,39.83
2023-05-05T02:54:13.638Z,39.90
2023-05-05T02:54:45.052Z,39.73
2023-05-05T02:55:16.491Z,39.67
2023-05-05T02:55:47.897Z,39.52
2023-05-05T02:56:19.300Z,39.61
2023-05-05T02:56:50.708Z,39.21
2023-05-05T02:57:22.102Z,39.48
2023-05-05T02:57:53.517Z,39.56
2023-05-05T02:58:24.982Z,39.29
2023-05-05T02:58:56.401Z,39.36
2023-05-05T02:59:27.872Z,39.20
2023-05-05T02:59:59.281Z,39.84
2023-05-05T03:00:30.676Z,39.61
2023-05-05T03:01:02.098Z,39.77
2023-05-05T03:01:33.519Z,39.62
2023-05-05T03:02:04.934Z,39.08
2023-05-05T03:02:36.496Z,39.52
2023-05-05T03:03:07.969Z,39.72
2023-05-05T03:03:39.511Z,39.32
2023-05-05T03:04:10.985Z,39.69
2023-05-05T03:04:42.410Z,39.36
2023-05-05T03:05:13.803Z,39.27
2023-05-05T03:05:45.226Z,39.37
2023-05-05T03:06:16.651Z,39.56
2023-05-05T03:06:48.047Z,39.58
2023-05-05T03:07:19.461Z,39.47
2023-05-05T03:07:50.861Z,39.58
2023-05-05T03:08:22.286Z,39.34
2023-05-05T03:08:53.681Z,39.42
2023-05-05T03:09:25.107Z,39.54
2023-05-05T03:09:56.545Z,39.70
2023-05-05T03:10:27.964Z,39.68
2023-05-05T03:10:59.365Z,39.15
2023-05-05T03:11:30.795Z,39.73
2023-05-05T03:12:02.212Z,39.35
2023-05-05T03:12:33.646Z,39.70
2023-05-05T03:13:05.178Z,39.29
2023-05-05T03:13:36.639Z,39.45
2023-05-05T03:14:08.069Z,39.34
2023-05-05T03:14:39.497Z,39.47
2023-05-05T03:15:10.953Z,39.22
2023-05-05T03:15:42.353Z,39.29
2023-05-05T03:16:13.818Z,39.60
2023-05-05T03:16:45.307Z,39.76
2023-05-05T03:17:16.775Z,39.62
2023-05-05T03:17:48.215Z,39.13
2023-05-05T03:18:19.676Z,39.21
2023-05-05T03:18:51.105Z,39.35
2023-05-05T03:19:22.511Z,39.54
2023-05-05T03:19:53.897Z,39.12
2023-05-05T03:20:25.337Z,39.46
2023-05-05T03:20:56.745Z,39.82
2023-05-05T03:21:28.155Z,39.53
2023-05-05T03:21:59.567Z,39.50
2023-05-05T03:22:30.968Z,39.89
2023-05-05T03:23:02.380Z,39.65
2023-05-05T03:23:33.800Z,39.61
2023-05-05T03:24:05.199Z,39.92
2023-05-05T03:24:36.609Z,39.63
2023-05-05T03:25:08.008Z,39.22
2023-05-05T03:25:39.448Z,39.48
2023-05-05T03:26:10.849Z,39.86
2023-05-05T03:26:42.246Z,39.41
2023-05-05T03:27:13.645Z,39.67
2023-05-05T03:27:45.060Z,39.73
2023-05-05T03:28:16.469Z,39.24
2023-05-05T03:28:47.932Z,39.38
2023-05-05T03:29:19.329Z,39.52
2023-05-05T03:29:50.742Z,39.70
2023-05-05T03:30:22.160Z,39.36
2023-05-05T03:30:53.620Z,39.36
2023-05-05T03:31:25.112Z,39.25
2023-05-05T03:31:56.571Z,39.46
2023-05-05T03:32:28.045Z,39.45
2023-05-05T03:32:59.493Z,39.43
2023-05-05T03:33:30.920Z,39.51
2023-05-05T03:34:02.318Z,39.54
2023-05-05T03:34:33.715Z,39.50
2023-05-05T03:35:05.108Z,39.78
2023-05-05T03:35:36.514Z,39.86
2023-05-05T03:36:07.954Z,39.52
2023-05-05T03:36:39.371Z,39.63
2023-05-05T03:37:10.766Z,39.46
2023-05-05T03:37:42.177Z,39.52
2023-05-05T03:38:13.566Z,39.22
2023-05-05T03:38:44.970Z,39.34
2023-05-05T03:39:16.368Z,39.22
2023-05-05T03:39:47.776Z,39.48
2023-05-05T03:40:19.193Z,39.15
2023-05-05T03:40:50.619Z,39.57
2023-05-05T03:41:22.051Z,39.60
2023-05-05T03:41:53.479Z,39.55
2023-05-05T03:42:24.890Z,39.70
2023-05-05T03:42:56.299Z,39.31
2023-05-05T03:43:27.695Z,39.54
2023-05-05T03:43:59.095Z,39.34
2023-05-05T03:44:30.484Z,39.66
2023-05-05T03:45:01.922Z,39.50
2023-05-05T03:45:33.373Z,39.69
2023-05-05T03:46:04.825Z,39.56
2023-05-05T03:46:36.296Z,39.58
2023-05-05T03:47:07.710Z,39.66
2023-05-05T03:47:39.143Z,39.93
2023-05-05T03:48:10.564Z,39.35
2023-05-05T03:48:41.975Z,39.25
2023-05-05T03:49:13.377Z,39.41
2023-05-05T03:49:44.780Z,39.27
2023-05-05T03:50:16.172Z,39.88
2023-05-05T03:50:47.566Z,39.52
2023-05-05T03:51:18.963Z,39.48
2023-05-05T03:51:50.380Z,39.76
2023-05-05T03:52:21.793Z,39.51
2023-05-05T03:52:53.215Z,39.95
2023-05-05T03:53:24.631Z,39.50
2023-05-05T03:53:56.041Z,39.61
2023-05-05T03:54:27.437Z,39.49
2023-05-05T03:54:58.846Z,39.95
2023-05-05T03:55:30.248Z,39.65
2023-05-05T03:56:01.670Z,39.52
2023-05-05T03:56:33.090Z,39.72
2023-05-05T03:57:04.555Z,39.35
2023-05-05T03:57:35.971Z,39.33
2023-05-05T03:58:07.366Z,39.26
2023-05-05T03:58:38.796Z,39.84
2023-05-05T03:59:10.221Z,39.96
2023-05-05T03:59:41.654Z,39.21
2023-05-05T04:00:13.081Z,39.19
2023-05-05T04:00:44.475Z,39.75
2023-05-05T04:01:15.881Z,39.40
2023-05-05T04:01:47.290Z,39.42
2023-05-05T04:02:18.984Z,39.50
2023-05-05T04:02:50.558Z,39.56
2023-05-05T04:03:22.123Z,39.77
2023-05-05T04:03:53.655Z,39.96
2023-05-05T04:04:25.187Z,39.45
2023-05-05T04:04:56.642Z,39.86
2023-05-05T04:05:28.051Z,39.16
2023-05-05T04:05:59.456Z,39.47
2023-05-05T04:06:30.864Z,39.76
2023-05-05T04:07:02.274Z,39.58
2023-05-05T04:07:33.697Z,39.85
2023-05-05T04:08:05.107Z,39.33
2023-05-05T04:08:36.564Z,39.93
2023-05-05T04:09:07.951Z,39.65
2023-05-05T04:09:39.362Z,39.52
2023-05-05T04:10:10.832Z,39.97
2023-05-05T04:10:42.263Z,39.50
2023-05-05T04:11:13.665Z,39.38
2023-05-05T04:11:45.071Z,39.57
2023-05-05T04:12:16.490Z,39.64
2023-05-05T04:12:47.926Z,39.51
2023-05-05T04:13:19.378Z,39.27
2023-05-05T04:13:50.847Z,39.91
2023-05-05T04:14:22.241Z,39.47
2023-05-05T04:14:53.644Z,39.64
2023-05-05T04:15:25.060Z,40.03
2023-05-05T04:15:56.504Z,39.84
2023-05-05T04:16:27.991Z,39.79
2023-05-05T04:16:59.426Z,39.68
2023-05-05T04:17:30.862Z,39.36
2023-05-05T04:18:02.274Z,39.40
2023-05-05T04:18:33.700Z,39.96
2023-05-05T04:19:05.149Z,39.67
2023-05-05T04:19:36.550Z,39.63
2023-05-05T04:20:08.123Z,39.33
2023-05-05T04:20:39.727Z,39.96
2023-05-05T04:21:11.149Z,39.34
2023-05-05T04:21:42.572Z,39.49
2023-05-05T04:22:14.010Z,39.58
2023-05-05T04:22:45.423Z,39.88
2023-05-05T04:23:16.839Z,39.36
2023-05-05T04:23:48.271Z,39.79
2023-05-05T04:24:19.717Z,39.77
2023-05-05T04:24:51.131Z,39.58
2023-05-05T04:25:22.558Z,39.27
2023-05-05T04:25:53.982Z,39.46
2023-05-05T04:26:25.392Z,39.55
2023-05-05T04:26:56.789Z,39.67
2023-05-05T04:27:28.251Z,39.59
2023-05-05T04:27:59.658Z,39.83
2023-05-05T04:28:31.102Z,39.68
2023-05-05T04:29:02.505Z,39.53
2023-05-05T04:29:33.980Z,39.65
2023-05-05T04:30:05.532Z,39.59
2023-05-05T04:30:37.052Z,39.54
2023-05-05T04:31:08.503Z,39.86
2023-05-05T04:31:39.988Z,39.46
2023-05-05T04:32:11.409Z,39.66
2023-05-05T04:32:42.847Z,39.75
2023-05-05T04:33:14.259Z,39.75
2023-05-05T04:33:45.682Z,39.69
2023-05-05T04:34:17.092Z,39.84
2023-05-05T04:34:48.505Z,39.45
2023-05-05T04:35:19.897Z,39.74
2023-05-05T04:35:51.309Z,39.42
2023-05-05T04:36:22.721Z,39.47
2023-05-05T04:36:54.132Z,39.69
2023-05-05T04:37:25.539Z,39.80
2023-05-05T04:37:57.002Z,39.99
2023-05-05T04:38:28.459Z,39.90
2023-05-05T04:38:59.960Z,39.80
2023-05-05T04:39:31.401Z,40.03
2023-05-05T04:40:02.864Z,39.68
2023-05-05T04:40:34.272Z,39.69
2023-05-05T04:41:05.693Z,39.77
2023-05-05T04:41:37.117Z,39.67
2023-05-05T04:42:08.519Z,39.76
2023-05-05T04:42:39.945Z,39.48
2023-05-05T04:43:11.372Z,40.02
2023-05-05T04:43:42.789Z,39.94
2023-05-05T04:44:14.202Z,39.45
2023-05-05T04:44:45.623Z,39.48
2023-05-05T04:45:17.074Z,39.78
2023-05-05T04:45:48.504Z,39.59
2023-05-05T04:46:19.956Z,39.88
2023-05-05T04:46:51.450Z,39.31
2023-05-05T04:47:22.925Z,39.99
2023-05-05T04:47:54.377Z,39.93
2023-05-05T04:48:25.809Z,39.58
2023-05-05T04:48:57.207Z,39.42
2023-05-05T04:49:28.612Z,39.90
2023-05-05T04:50:00.027Z,39.80
2023-05-05T04:50:31.488Z,39.86
2023-05-05T04:51:02.903Z,39.69
2023-05-05T04:51:34.314Z,39.69
2023-05-05T04:52:05.729Z,39.84
2023-05-05T04:52:37.140Z,39.90
2023-05-05T04:53:08.525Z,39.63
2023-05-05T04:53:39.932Z,39.77
2023-05-05T04:54:11.345Z,39.79
2023-05-05T04:54:42.761Z,39.36
2023-05-05T04:55:14.186Z,39.36
2023-05-05T04:55:45.616Z,39.90
2023-05-05T04:56:17.034Z,39.73
2023-05-05T04:56:48.446Z,39.93
2023-05-05T04:57:19.847Z,39.83
2023-05-05T04:57:51.234Z,39.60
2023-05-05T04:58:22.650Z,39.75
2023-05-05T04:58:54.041Z,39.92
2023-05-05T04:59:25.473Z,39.61
2023-05-05T04:59:56.882Z,39.52
2023-05-05T05:00:28.337Z,39.31
2023-05-05T05:00:59.764Z,39.48
2023-05-05T05:01:31.186Z,39.56
2023-05-05T05:02:02.647Z,39.89
2023-05-05T05:02:34.139Z,39.41
2023-05-05T05:03:05.773Z,39.47
2023-05-05T05:03:37.359Z,39.33
2023-05-05T05:04:08.794Z,39.75
2023-05-05T05:04:40.275Z,39.41
2023-05-05T05:05:11.685Z,39.09
2023-05-05T05:05:43.144Z,39.44
2023-05-05T05:06:14.637Z,39.52
2023-05-05T05:06:46.090Z,39.65
2023-05-05T05:07:17.551Z,39.56
2023-05-05T05:07:48.945Z,39.45
2023-05-05T05:08:20.489Z,39.65
2023-05-05T05:08:51.892Z,39.47
2023-05-05T05:09:23.293Z,39.05
2023-05-05T05:09:54.736Z,39.15
2023-05-05T05:10:26.139Z,39.26
2023-05-05T05:10:57.574Z,39.24
2023-05-05T05:11:28.958Z,39.43
2023-05-05T05:12:00.374Z,39.40
2023-05-05T05:12:31.818Z,39.15
2023-05-05T05:13:03.299Z,39.78
2023-05-05T05:13:34.740Z,39.73
2023-05-05T05:14:06.159Z,39.38
2023-05-05T05:14:37.586Z,39.42
2023-05-05T05:15:09.017Z,39.25
2023-05-05T05:15:40.411Z,39.71
2023-05-05T05:16:11.889Z,39.60
2023-05-05T05:16:43.359Z,39.44
2023-05-05T05:17:14.790Z,39.73
2023-05-05T05:17:46.451Z,39.31
2023-05-05T05:18:17.904Z,39.34
2023-05-05T05:18:49.316Z,39.38
2023-05-05T05:19:20.704Z,39.30
2023-05-05T05:19:52.203Z,39.57
2023-05-05T05:20:23.634Z,39.50
2023-05-05T05:20:55.050Z,39.42
2023-05-05T05:21:26.458Z,39.77
2023-05-05T05:21:57.856Z,39.37
2023-05-05T05:22:29.278Z,39.70
2023-05-05T05:23:00.685Z,39.50
2023-05-05T05:23:32.081Z,39.61
2023-05-05T05:24:03.505Z,39.56
2023-05-05T05:24:34.920Z,39.68
2023-05-05T05:25:06.381Z,39.29
2023-05-05T05:25:37.810Z,39.60
2023-05-05T05:26:09.223Z,39.97
2023-05-05T05:26:40.688Z,39.55
2023-05-05T05:27:12.109Z,39.16
2023-05-05T05:27:43.506Z,39.77
2023-05-05T05:28:14.911Z,39.43
2023-05-05T05:28:46.298Z,39.62
2023-05-05T05:29:17.703Z,39.38
2023-05-05T05:29:49.159Z,39.59
2023-05-05T05:30:20.579Z,39.63
2023-05-05T05:30:52.022Z,39.88
2023-05-05T05:31:23.474Z,40.20
2023-05-05T05:31:54.972Z,40.00
2023-05-05T05:32:26.452Z,39.77
2023-05-05T05:32:57.964Z,39.57
2023-05-05T05:33:29.421Z,39.85
2023-05-05T05:34:00.821Z,39.63
2023-05-05T05:34:32.260Z,39.75
2023-05-05T05:35:03.777Z,39.88
2023-05-05T05:35:35.576Z,39.74
2023-05-05T05:36:07.057Z,39.94
2023-05-05T05:36:38.464Z,39.60
2023-05-05T05:37:09.977Z,39.75
2023-05-05T05:37:41.389Z,39.46
2023-05-05T05:38:12.796Z,39.48
2023-05-05T05:38:44.279Z,39.49
2023-05-05T05:39:15.701Z,40.02
2023-05-05T05:39:47.100Z,39.85
2023-05-05T05:40:18.508Z,40.04
2023-05-05T05:40:49.912Z,39.79
2023-05-05T05:41:21.335Z,39.88
2023-05-05T05:41:52.941Z,39.83
2023-05-05T05:42:24.807Z,39.38
2023-05-05T05:42:56.670Z,40.03
2023-05-05T05:43:28.580Z,39.63
2023-05-05T05:44:00.478Z,39.98
2023-05-05T05:44:31.988Z,39.69
2023-05-05T05:45:03.395Z,39.46
2023-05-05T05:45:34.788Z,39.58
2023-05-05T05:46:08.846Z,39.55
2023-05-05T05:46:40.753Z,39.47
2023-05-05T05:47:12.299Z,39.38
2023-05-05T05:47:43.770Z,39.86
2023-05-05T05:48:15.226Z,39.52
2023-05-05T05:48:46.644Z,40.32
2023-05-05T05:49:18.076Z,40.26
2023-05-05T05:49:49.477Z,39.73
2023-05-05T05:50:20.896Z,39.78
2023-05-05T05:50:52.332Z,40.16
2023-05-05T05:51:23.722Z,39.74
2023-05-05T05:51:55.141Z,39.85
2023-05-05T05:52:26.823Z,39.69
2023-05-05T05:52:58.302Z,40.05
2023-05-05T05:53:29.822Z,39.68
2023-05-05T05:54:01.432Z,40.04
2023-05-05T05:54:33.038Z,40.00
2023-05-05T05:55:04.461Z,40.17
2023-05-05T05:55:36.021Z,39.94
2023-05-05T05:56:07.698Z,39.70
2023-05-05T05:56:39.131Z,39.73
2023-05-05T05:57:11.083Z,39.71
2023-05-05T05:57:42.722Z,40.20
2023-05-05T05:58:18.301Z,40.29
2023-05-05T05:58:50.238Z,40.13
2023-05-05T05:59:21.836Z,40.23
2023-05-05T05:59:53.490Z,40.30
2023-05-05T06:00:25.208Z,39.65
2023-05-05T06:00:56.719Z,40.06
2023-05-05T06:01:28.124Z,40.20
2023-05-05T06:02:01.761Z,40.14
2023-05-05T06:02:33.418Z,40.05
2023-05-05T06:03:04.963Z,40.13
2023-05-05T06:03:36.551Z,39.99
2023-05-05T06:04:08.068Z,40.13
2023-05-05T06:04:39.723Z,39.81
2023-05-05T06:05:11.277Z,40.22
2023-05-05T06:05:42.782Z,40.34
2023-05-05T06:06:14.233Z,39.78
2023-05-05T06:06:45.756Z,40.39
2023-05-05T06:07:17.250Z,40.38
2023-05-05T06:07:48.710Z,40.29
2023-05-05T06:08:20.182Z,40.33
2023-05-05T06:08:51.595Z,40.04
2023-05-05T06:09:23.843Z,40.36
2023-05-05T06:09:55.249Z,39.94
2023-05-05T06:10:28.460Z,40.07
2023-05-05T06:11:00.082Z,40.10
2023-05-05T06:11:31.533Z,40.47
2023-05-05T06:12:02.972Z,40.14
2023-05-05T06:12:40.554Z,40.30
2023-05-05T06:13:12.104Z,40.21
2023-05-05T06:13:43.766Z,40.46
2023-05-05T06:14:15.982Z,40.23
2023-05-05T06:14:48.206Z,40.23
2023-05-05T06:15:19.680Z,39.92
2023-05-05T06:15:51.204Z,39.86
2023-05-05T06:16:22.696Z,39.86
2023-05-05T06:16:54.117Z,40.41
2023-05-05T06:17:25.786Z,39.75
2023-05-05T06:17:57.275Z,39.79
2023-05-05T06:18:28.755Z,40.00
2023-05-05T06:19:00.163Z,40.28
2023-05-05T06:19:31.604Z,40.17
2023-05-05T06:20:02.999Z,39.93
2023-05-05T06:20:34.400Z,40.14
2023-05-05T06:21:05.844Z,40.07
2023-05-05T06:21:37.245Z,40.17
2023-05-05T06:22:08.651Z,40.36
2023-05-05T06:22:40.096Z,39.99
2023-05-05T06:23:11.739Z,40.02
2023-05-05T06:23:43.149Z,40.44
2023-05-05T06:24:14.659Z,40.54
2023-05-05T06:24:46.107Z,40.60
2023-05-05T06:25:17.555Z,40.09
2023-05-05T06:25:49.004Z,40.00
2023-05-05T06:26:20.452Z,40.16
2023-05-05T06:26:51.847Z,40.21
2023-05-05T06:27:23.238Z,40.81
2023-05-05T06:27:54.666Z,40.12
2023-05-05T06:28:26.056Z,40.59
2023-05-05T06:28:57.461Z,40.83
2023-05-05T06:29:28.995Z,40.73
2023-05-05T06:30:00.452Z,40.58
2023-05-05T06:30:31.873Z,40.30
2023-05-05T06:31:03.324Z,40.53
2023-05-05T06:31:34.863Z,40.68
2023-05-05T06:32:06.284Z,40.40
2023-05-05T06:32:37.771Z,40.60
2023-05-05T06:33:09.387Z,40.63
2023-05-05T06:33:40.817Z,40.88
2023-05-05T06:34:12.240Z,41.04
2023-05-05T06:34:43.633Z,40.97
2023-05-05T06:35:15.059Z,40.59
2023-05-05T06:35:46.465Z,40.38
2023-05-05T06:36:20.266Z,40.79
2023-05-05T06:36:51.783Z,40.79
2023-05-05T06:37:23.245Z,40.83
2023-05-05T06:37:54.646Z,40.85
2023-05-05T06:38:26.185Z,40.70
2023-05-05T06:38:57.626Z,40.75
2023-05-05T06:39:29.022Z,40.70
2023-05-05T06:40:00.470Z,40.61
2023-05-05T06:40:31.923Z,40.69
2023-05-05T06:41:03.335Z,40.86
2023-05-05T06:41:34.774Z,40.83
2023-05-05T06:42:06.740Z,41.08
2023-05-05T06:42:38.168Z,40.94
2023-05-05T06:43:09.593Z,41.20
2023-05-05T06:43:41.152Z,41.11
2023-05-05T06:44:12.592Z,40.66
2023-05-05T06:44:44.003Z,40.55
2023-05-05T06:45:15.420Z,41.00